createdAt,value
2017-11-07T00:01:42.602Z,6.90
2017-11-07T00:04:11.444Z,6.90
2017-11-07T00:06:40.170Z,6.90
2017-11-07T00:09:08.988Z,6.90
2017-11-07T00:11:37.694Z,6.90
2017-11-07T00:14:06.474Z,6.90
2017-11-07T00:16:35.326Z,7.00
2017-11-07T00:19:04.195Z,6.90
2017-11-07T00:21:33.006Z,6.90
2017-11-07T00:24:01.847Z,6.90
2017-11-07T00:26:31.454Z,6.90
2017-11-07T00:29:00.290Z,6.90
2017-11-07T00:31:29.092Z,6.90
2017-11-07T00:33:58.506Z,6.90
2017-11-07T00:36:28.618Z,7.00
2017-11-07T00:38:57.509Z,7.00
2017-11-07T00:41:26.317Z,7.00
2017-11-07T00:43:55.148Z,7.00
2017-11-07T00:46:23.772Z,7.00
2017-11-07T00:48:52.623Z,7.00
2017-11-07T00:51:21.394Z,7.00
2017-11-07T00:53:50.167Z,7.00
2017-11-07T00:56:18.994Z,7.00
2017-11-07T00:58:47.869Z,7.00
2017-11-07T01:01:16.681Z,7.00
2017-11-07T01:03:46.432Z,7.10
2017-11-07T01:06:15.297Z,7.00
2017-11-07T01:08:44.167Z,7.00
2017-11-07T01:11:13.043Z,7.10
2017-11-07T01:13:41.877Z,7.10
2017-11-07T01:16:10.882Z,7.10
2017-11-07T01:21:13.231Z,7.00
2017-11-07T01:23:42.004Z,7.00
2017-11-07T01:26:12.872Z,7.00
2017-11-07T01:28:43.758Z,7.00
2017-11-07T01:31:12.695Z,6.90
2017-11-07T01:33:42.159Z,7.00
2017-11-07T01:36:11.950Z,7.00
2017-11-07T01:38:40.960Z,7.00
2017-11-07T01:41:09.813Z,7.00
2017-11-07T01:43:38.665Z,7.10
2017-11-07T01:46:07.494Z,7.00
2017-11-07T01:48:36.424Z,7.00
2017-11-07T01:51:05.489Z,7.00
2017-11-07T01:53:34.399Z,7.00
2017-11-07T01:56:03.262Z,7.00
2017-11-07T01:58:32.916Z,6.90
2017-11-07T02:01:01.454Z,6.90
2017-11-07T02:03:30.250Z,7.00
2017-11-07T02:05:59.102Z,6.90
2017-11-07T02:08:27.942Z,6.90
2017-11-07T02:10:56.822Z,6.90
2017-11-07T02:13:25.640Z,6.80
2017-11-07T02:15:54.042Z,6.90
2017-11-07T02:18:24.534Z,6.90
2017-11-07T02:20:52.721Z,6.90
2017-11-07T02:23:21.169Z,6.80
2017-11-07T02:25:49.582Z,6.80
2017-11-07T02:28:17.785Z,6.80
2017-11-07T02:30:47.075Z,6.90
2017-11-07T02:33:15.935Z,6.90
2017-11-07T02:35:44.986Z,6.90
2017-11-07T02:38:14.513Z,6.80
2017-11-07T02:40:43.411Z,6.80
2017-11-07T02:43:12.620Z,6.80
2017-11-07T02:45:41.864Z,6.80
2017-11-07T02:48:14.096Z,6.80
2017-11-07T02:50:43.068Z,6.70
2017-11-07T02:53:12.038Z,6.70
2017-11-07T02:55:41.536Z,6.70
2017-11-07T02:58:13.179Z,6.70
2017-11-07T03:00:46.268Z,6.70
2017-11-07T03:03:24.068Z,6.70
2017-11-07T03:05:54.477Z,6.80
2017-11-07T03:08:29.031Z,6.80
2017-11-07T03:11:07.773Z,6.80
2017-11-07T03:13:37.954Z,6.80
2017-11-07T03:16:09.157Z,6.70
2017-11-07T03:18:40.652Z,6.70
2017-11-07T03:21:13.086Z,6.70
2017-11-07T03:23:44.262Z,6.80
2017-11-07T03:26:15.492Z,6.70
2017-11-07T03:33:57.172Z,6.80
2017-11-07T03:36:31.895Z,6.80
2017-11-07T03:39:10.242Z,6.80
2017-11-07T03:41:38.770Z,6.80
2017-11-07T03:44:15.832Z,6.80
2017-11-07T03:46:50.997Z,6.80
2017-11-07T03:49:26.461Z,6.80
2017-11-07T03:57:24.775Z,6.80
2017-11-07T03:59:56.081Z,6.70
2017-11-07T04:02:26.256Z,6.70
2017-11-07T04:04:56.204Z,6.80
2017-11-07T04:07:29.289Z,6.80
2017-11-07T04:09:59.149Z,6.80
2017-11-07T04:12:29.820Z,6.80
2017-11-07T04:15:11.215Z,6.80
2017-11-07T04:17:42.643Z,6.90
2017-11-07T04:20:21.982Z,7.00
2017-11-07T04:22:53.187Z,7.00
2017-11-07T04:25:24.678Z,7.00
2017-11-07T04:27:57.002Z,6.90
2017-11-07T04:33:05.743Z,7.00
2017-11-07T04:35:40.655Z,6.90
2017-11-07T04:40:44.551Z,6.90
2017-11-07T04:43:14.127Z,6.90
2017-11-07T04:45:43.033Z,6.90
2017-11-07T04:48:11.843Z,7.00
2017-11-07T04:50:40.778Z,7.00
2017-11-07T04:53:09.766Z,7.00
2017-11-07T04:55:40.434Z,7.00
2017-11-07T04:58:09.749Z,7.00
2017-11-07T05:00:38.278Z,6.90
2017-11-07T05:03:11.571Z,6.90
2017-11-07T05:05:40.575Z,6.90
2017-11-07T05:08:09.599Z,7.00
2017-11-07T05:10:38.678Z,6.90
2017-11-07T05:13:07.446Z,7.00
2017-11-07T05:15:36.259Z,7.00
2017-11-07T05:18:05.151Z,7.00
2017-11-07T05:20:33.999Z,7.10
2017-11-07T05:23:03.565Z,7.00
2017-11-07T05:25:32.771Z,7.00
2017-11-07T05:28:01.958Z,7.00
2017-11-07T05:30:30.867Z,7.00
2017-11-07T05:32:59.712Z,7.00
2017-11-07T05:35:28.602Z,7.00
2017-11-07T05:37:57.567Z,7.00
2017-11-07T05:40:27.852Z,7.00
2017-11-07T05:43:12.494Z,7.00
2017-11-07T05:45:42.265Z,7.00
2017-11-07T05:50:47.974Z,6.90
2017-11-07T05:59:58.596Z,6.80
2017-11-07T06:02:30.142Z,6.80
2017-11-07T06:05:09.507Z,6.80
2017-11-07T06:07:38.332Z,6.80
2017-11-07T06:10:34.163Z,7.00
2017-11-07T06:16:29.057Z,7.00
2017-11-07T06:18:58.454Z,7.00
2017-11-07T06:21:28.112Z,7.00
2017-11-07T06:23:56.704Z,7.10
2017-11-07T06:26:28.390Z,7.10
2017-11-07T06:28:57.327Z,7.00
2017-11-07T06:31:26.912Z,7.10
2017-11-07T06:33:55.770Z,7.10
2017-11-07T06:36:26.229Z,7.10
2017-11-07T06:38:56.045Z,7.10
2017-11-07T06:41:26.051Z,7.10
2017-11-07T06:44:02.134Z,7.10
2017-11-07T06:46:33.444Z,7.20
2017-11-07T06:49:05.949Z,7.10
2017-11-07T06:51:35.140Z,7.20
2017-11-07T06:54:05.362Z,7.20
2017-11-07T06:56:35.233Z,7.20
2017-11-07T06:59:05.313Z,7.20
2017-11-07T07:01:34.930Z,7.20
2017-11-07T07:04:04.053Z,7.20
2017-11-07T07:06:32.716Z,7.20
2017-11-07T07:09:02.346Z,7.30
2017-11-07T07:11:33.482Z,7.30
2017-11-07T07:14:03.756Z,7.30
2017-11-07T07:16:35.181Z,7.40
2017-11-07T07:19:06.015Z,7.50
2017-11-07T07:21:39.405Z,7.50
2017-11-07T07:24:09.263Z,7.70
2017-11-07T07:26:38.637Z,7.60
2017-11-07T07:29:08.382Z,7.60
2017-11-07T07:31:38.455Z,7.70
2017-11-07T07:34:08.126Z,7.70
2017-11-07T07:36:39.127Z,7.80
2017-11-07T07:39:08.777Z,7.80
2017-11-07T07:41:39.739Z,7.80
2017-11-07T07:44:12.368Z,7.90
2017-11-07T07:46:42.481Z,7.90
2017-11-07T07:49:12.869Z,8.00
2017-11-07T07:51:45.072Z,8.10
2017-11-07T07:54:15.793Z,8.20
2017-11-07T07:56:46.663Z,8.20
2017-11-07T07:59:15.998Z,8.20
2017-11-07T08:01:46.734Z,8.20
2017-11-07T08:04:17.304Z,8.10
2017-11-07T08:06:51.268Z,8.10
2017-11-07T08:09:24.031Z,8.20
2017-11-07T08:14:30.094Z,8.20
2017-11-07T08:17:00.533Z,8.40
2017-11-07T08:19:29.851Z,8.40
2017-11-07T08:21:59.838Z,8.50
2017-11-07T08:24:29.475Z,8.60
2017-11-07T08:26:58.880Z,8.70
2017-11-07T08:29:28.634Z,8.60
2017-11-07T08:31:58.911Z,8.50
2017-11-07T08:34:29.400Z,8.60
2017-11-07T08:37:00.033Z,8.60
2017-11-07T08:39:28.633Z,8.50
2017-11-07T08:41:58.621Z,8.50
2017-11-07T08:44:27.986Z,8.40
2017-11-07T08:46:59.026Z,8.40
2017-11-07T08:49:28.314Z,8.40
2017-11-07T08:51:59.729Z,8.50
2017-11-07T08:54:30.027Z,8.60
2017-11-07T08:57:00.862Z,8.70
2017-11-07T08:59:35.159Z,8.60
2017-11-07T09:02:08.177Z,8.70
2017-11-07T09:04:38.220Z,8.70
2017-11-07T09:07:10.864Z,8.70
2017-11-07T09:09:39.797Z,8.80
2017-11-07T09:12:09.015Z,8.90
2017-11-07T09:14:37.681Z,8.80
2017-11-07T09:17:07.143Z,9.10
2017-11-07T09:19:35.978Z,9.50
2017-11-07T09:22:05.185Z,9.80
2017-11-07T09:24:35.338Z,10.00
2017-11-07T09:27:05.631Z,10.10
2017-11-07T09:29:35.419Z,10.10
2017-11-07T09:32:07.237Z,10.50
2017-11-07T09:34:39.535Z,10.50
2017-11-07T09:37:12.510Z,10.60
2017-11-07T09:39:43.421Z,10.60
2017-11-07T09:42:15.497Z,10.50
2017-11-07T09:44:47.579Z,10.50
2017-11-07T09:47:16.301Z,10.50
2017-11-07T09:49:45.917Z,10.50
2017-11-07T09:52:15.491Z,10.50
2017-11-07T09:57:20.251Z,10.20
2017-11-07T09:59:50.910Z,10.10
2017-11-07T10:02:19.639Z,10.20
2017-11-07T10:04:48.069Z,10.10
2017-11-07T10:07:20.095Z,9.90
2017-11-07T10:09:49.477Z,9.80
2017-11-07T10:12:18.094Z,9.60
2017-11-07T10:14:47.877Z,9.60
2017-11-07T10:17:17.718Z,9.60
2017-11-07T10:22:20.925Z,9.50
2017-11-07T10:24:49.477Z,9.50
2017-11-07T10:27:18.968Z,9.50
2017-11-07T10:29:48.259Z,9.50
2017-11-07T10:32:18.685Z,9.60
2017-11-07T10:34:48.356Z,9.50
2017-11-07T10:37:17.746Z,9.50
2017-11-07T10:39:46.398Z,9.40
2017-11-07T10:42:16.497Z,9.40
2017-11-07T10:44:45.254Z,9.40
2017-11-07T10:47:14.795Z,9.40
2017-11-07T10:49:45.576Z,9.40
2017-11-07T10:52:14.968Z,9.40
2017-11-07T10:54:43.754Z,9.40
2017-11-07T10:57:13.086Z,9.40
2017-11-07T10:59:41.901Z,9.40
2017-11-07T11:02:12.398Z,9.30
2017-11-07T11:04:40.827Z,9.20
2017-11-07T11:07:10.470Z,9.20
2017-11-07T11:09:43.574Z,9.20
2017-11-07T11:12:13.487Z,9.10
2017-11-07T11:14:42.368Z,8.90
2017-11-07T11:17:11.560Z,9.00
2017-11-07T11:19:41.532Z,9.10
2017-11-07T11:22:10.192Z,9.10
2017-11-07T11:24:42.221Z,9.20
2017-11-07T11:27:12.321Z,9.20
2017-11-07T11:29:43.177Z,9.30
2017-11-07T11:32:11.807Z,9.40
2017-11-07T11:34:41.588Z,9.30
2017-11-07T11:37:09.936Z,9.40
2017-11-07T11:39:41.142Z,9.40
2017-11-07T11:42:10.718Z,9.50
2017-11-07T11:44:40.941Z,9.40
2017-11-07T11:47:10.028Z,9.50
2017-11-07T11:49:38.910Z,9.50
2017-11-07T11:52:08.002Z,9.50
2017-11-07T11:54:37.137Z,9.50
2017-11-07T11:57:07.553Z,9.50
2017-11-07T11:59:38.612Z,9.30
2017-11-07T12:02:07.858Z,9.30
2017-11-07T12:04:37.827Z,9.20
2017-11-07T12:07:07.824Z,9.20
2017-11-07T12:09:38.130Z,9.10
2017-11-07T12:12:06.849Z,9.10
2017-11-07T12:14:35.605Z,9.20
2017-11-07T12:17:04.362Z,9.20
2017-11-07T12:19:34.834Z,9.20
2017-11-07T12:22:03.288Z,9.10
2017-11-07T12:24:33.562Z,9.10
2017-11-07T12:27:01.814Z,9.10
2017-11-07T12:29:30.058Z,9.00
2017-11-07T12:31:58.755Z,9.00
2017-11-07T12:34:27.320Z,9.00
2017-11-07T12:36:55.790Z,9.00
2017-11-07T12:39:24.423Z,8.90
2017-11-07T12:41:53.798Z,8.80
2017-11-07T12:44:22.107Z,8.80
2017-11-07T12:46:50.693Z,8.80
2017-11-07T12:49:19.509Z,8.90
2017-11-07T12:52:00.447Z,8.90
2017-11-07T12:54:29.300Z,8.90
2017-11-07T12:56:58.177Z,8.90
2017-11-07T12:59:27.138Z,8.90
2017-11-07T13:01:56.151Z,8.90
2017-11-07T13:04:25.006Z,8.70
2017-11-07T13:06:53.899Z,8.70
2017-11-07T13:09:22.717Z,8.70
2017-11-07T13:11:51.824Z,8.70
2017-11-07T13:14:21.114Z,8.70
2017-11-07T13:16:49.959Z,8.60
2017-11-07T13:19:18.806Z,8.60
2017-11-07T13:21:47.613Z,8.50
2017-11-07T13:24:16.426Z,8.50
2017-11-07T13:26:46.022Z,8.60
2017-11-07T13:29:15.575Z,8.50
2017-11-07T13:31:44.383Z,8.50
2017-11-07T13:34:13.215Z,8.60
2017-11-07T13:36:42.777Z,8.70
2017-11-07T13:39:11.601Z,8.70
2017-11-07T13:41:40.402Z,8.60
2017-11-07T13:44:09.188Z,8.60
2017-11-07T13:46:40.276Z,8.60
2017-11-07T13:49:09.264Z,8.50
2017-11-07T13:51:38.064Z,8.60
2017-11-07T13:54:06.844Z,8.60
2017-11-07T13:56:35.623Z,8.70
2017-11-07T13:59:04.434Z,8.60
2017-11-07T14:01:33.229Z,8.60
2017-11-07T14:04:02.483Z,8.50
2017-11-07T14:06:32.113Z,8.60
2017-11-07T14:09:00.680Z,8.50
2017-11-07T14:11:30.234Z,8.40
2017-11-07T14:13:59.012Z,8.40
2017-11-07T14:16:27.802Z,8.40
2017-11-07T14:18:56.560Z,8.40
2017-11-07T14:21:25.381Z,8.40
2017-11-07T14:23:54.211Z,8.40
2017-11-07T14:26:23.068Z,8.40
2017-11-07T14:28:51.927Z,8.40
2017-11-07T14:31:20.763Z,8.30
2017-11-07T14:33:49.556Z,8.20
2017-11-07T14:36:18.362Z,8.30
2017-11-07T14:38:48.086Z,8.10
2017-11-07T14:41:17.642Z,8.00
2017-11-07T14:43:46.424Z,8.00
2017-11-07T14:46:15.374Z,8.00
2017-11-07T14:48:44.962Z,7.90
2017-11-07T14:51:13.799Z,7.80
2017-11-07T14:53:42.597Z,7.90
2017-11-07T14:56:11.407Z,7.90
2017-11-07T14:58:40.163Z,7.90
2017-11-07T15:01:08.954Z,7.80
2017-11-07T15:03:37.775Z,7.80
2017-11-07T15:06:06.533Z,7.70
2017-11-07T15:08:35.353Z,7.80
2017-11-07T15:11:03.863Z,7.80
2017-11-07T15:13:32.682Z,7.70
2017-11-07T15:16:01.484Z,7.70
2017-11-07T15:18:31.103Z,7.80
2017-11-07T15:20:59.888Z,7.80
2017-11-07T15:23:28.712Z,7.90
2017-11-07T15:25:57.551Z,7.90
2017-11-07T15:28:26.359Z,7.80
2017-11-07T15:30:55.106Z,7.80
2017-11-07T15:33:23.924Z,7.70
2017-11-07T15:35:53.459Z,7.80
2017-11-07T15:38:22.256Z,7.80
2017-11-07T15:40:51.146Z,7.90
2017-11-07T15:43:19.939Z,7.70
2017-11-07T15:45:48.727Z,7.70
2017-11-07T15:48:17.560Z,7.70
2017-11-07T15:50:47.083Z,7.90
2017-11-07T15:53:16.632Z,7.90
2017-11-07T15:55:45.429Z,7.80
2017-11-07T15:58:14.196Z,7.80
2017-11-07T16:00:42.626Z,7.80
2017-11-07T16:03:11.415Z,7.90
2017-11-07T16:05:40.252Z,7.90
2017-11-07T16:08:09.043Z,7.90
2017-11-07T16:10:40.995Z,7.90
2017-11-07T16:16:32.007Z,7.90
2017-11-07T16:19:01.550Z,7.80
2017-11-07T16:21:30.297Z,7.80
2017-11-07T16:23:59.119Z,7.80
2017-11-07T16:26:27.947Z,7.70
2017-11-07T16:28:56.763Z,7.80
2017-11-07T16:31:25.623Z,7.70
2017-11-07T16:33:54.394Z,7.70
2017-11-07T16:36:24.287Z,7.80
2017-11-07T16:38:53.076Z,7.80
2017-11-07T16:41:22.626Z,7.80
2017-11-07T16:43:51.481Z,7.80
2017-11-07T16:46:20.236Z,7.80
2017-11-07T16:48:49.028Z,7.80
2017-11-07T16:51:17.852Z,7.70
2017-11-07T16:53:46.635Z,7.70
2017-11-07T16:56:15.418Z,7.80
2017-11-07T16:58:44.291Z,7.90
2017-11-07T17:01:13.903Z,7.80
2017-11-07T17:03:42.804Z,7.80
2017-11-07T17:06:12.509Z,7.80
2017-11-07T17:08:42.042Z,7.80
2017-11-07T17:11:10.839Z,7.80
2017-11-07T17:13:39.605Z,7.70
2017-11-07T17:16:08.030Z,7.60
2017-11-07T17:18:36.844Z,7.70
2017-11-07T17:21:05.602Z,7.70
2017-11-07T17:23:34.394Z,7.60
2017-11-07T17:26:03.030Z,7.60
2017-11-07T17:28:31.800Z,7.60
2017-11-07T17:31:01.938Z,7.70
2017-11-07T17:33:30.783Z,7.70
2017-11-07T17:35:59.700Z,7.70
2017-11-07T17:38:28.525Z,7.80
2017-11-07T17:40:57.385Z,7.80
2017-11-07T17:43:26.550Z,7.80
2017-11-07T17:45:55.311Z,7.80
2017-11-07T17:48:24.168Z,7.70
2017-11-07T17:50:53.700Z,7.80
2017-11-07T17:53:22.507Z,7.80
2017-11-07T17:55:51.277Z,7.70
2017-11-07T17:58:20.218Z,7.70
2017-11-07T18:00:49.085Z,7.70
2017-11-07T18:03:17.907Z,7.70
2017-11-07T18:05:46.697Z,7.70
2017-11-07T18:08:15.546Z,7.80
2017-11-07T18:10:44.352Z,7.80
2017-11-07T18:13:13.154Z,7.70
2017-11-07T18:15:41.987Z,7.70
2017-11-07T18:18:11.559Z,7.80
2017-11-07T18:20:40.371Z,7.80
2017-11-07T18:23:09.160Z,7.80
2017-11-07T18:25:37.894Z,7.70
2017-11-07T18:28:06.503Z,7.60
2017-11-07T18:30:35.252Z,7.60
2017-11-07T18:33:04.034Z,7.80
2017-11-07T18:35:32.902Z,7.80
2017-11-07T18:38:01.861Z,7.80
2017-11-07T18:40:30.714Z,7.80
2017-11-07T18:42:59.562Z,7.90
2017-11-07T18:45:28.609Z,7.80
2017-11-07T18:47:57.400Z,7.70
2017-11-07T18:50:26.219Z,7.60
2017-11-07T18:52:54.968Z,7.50
2017-11-07T18:55:23.795Z,7.50
2017-11-07T18:57:52.621Z,7.40
2017-11-07T19:00:21.378Z,7.40
2017-11-07T19:02:50.143Z,7.40
2017-11-07T19:05:18.941Z,7.40
2017-11-07T19:07:47.723Z,7.40
2017-11-07T19:10:16.497Z,7.50
2017-11-07T19:12:44.916Z,7.50
2017-11-07T19:15:13.647Z,7.60
2017-11-07T19:17:43.229Z,7.60
2017-11-07T19:20:11.978Z,7.60
2017-11-07T19:22:40.451Z,7.70
2017-11-07T19:25:09.253Z,7.70
2017-11-07T19:27:38.031Z,7.70
2017-11-07T19:30:06.766Z,7.70
2017-11-07T19:32:35.508Z,7.60
2017-11-07T19:35:04.281Z,7.60
2017-11-07T19:37:33.089Z,7.70
2017-11-07T19:40:02.089Z,7.60
2017-11-07T19:42:30.857Z,7.70
2017-11-07T19:44:59.657Z,7.70
2017-11-07T19:47:28.413Z,7.70
2017-11-07T19:49:57.598Z,7.70
2017-11-07T19:52:26.334Z,7.70
2017-11-07T19:54:55.138Z,7.70
2017-11-07T19:57:23.880Z,7.70
2017-11-07T19:59:52.698Z,7.70
2017-11-07T20:02:21.441Z,7.80
2017-11-07T20:04:50.188Z,7.80
2017-11-07T20:07:18.967Z,7.80
2017-11-07T20:09:47.769Z,7.80
2017-11-07T20:12:16.528Z,7.90
2017-11-07T20:14:45.387Z,7.80
2017-11-07T20:17:14.124Z,7.70
2017-11-07T20:19:42.875Z,7.60
2017-11-07T20:22:11.690Z,7.50
2017-11-07T20:24:40.496Z,7.50
2017-11-07T20:27:09.462Z,7.50
2017-11-07T20:29:38.465Z,7.60
2017-11-07T20:32:07.282Z,7.60
2017-11-07T20:34:36.123Z,7.70
2017-11-07T20:37:04.618Z,7.60
2017-11-07T20:39:34.170Z,7.70
2017-11-07T20:42:02.951Z,7.60
2017-11-07T20:44:31.657Z,7.70
2017-11-07T20:47:00.462Z,7.80
2017-11-07T20:49:29.219Z,7.80
2017-11-07T20:51:57.931Z,7.80
2017-11-07T20:54:26.720Z,7.70
2017-11-07T20:56:55.524Z,7.70
2017-11-07T20:59:24.299Z,7.70
2017-11-07T21:01:53.099Z,7.70
2017-11-07T21:04:21.864Z,7.70
2017-11-07T21:06:50.644Z,7.70
2017-11-07T21:09:19.434Z,7.70
2017-11-07T21:11:48.181Z,7.70
2017-11-07T21:14:16.917Z,7.80
2017-11-07T21:16:45.722Z,7.90
2017-11-07T21:19:14.491Z,7.90
2017-11-07T21:21:43.243Z,7.90
2017-11-07T21:24:12.788Z,7.90
2017-11-07T21:26:41.534Z,7.90
2017-11-07T21:29:10.280Z,7.90
2017-11-07T21:31:39.663Z,7.80
2017-11-07T21:34:08.697Z,7.80
2017-11-07T21:36:38.203Z,7.80
2017-11-07T21:39:06.959Z,7.90
2017-11-07T21:41:35.767Z,7.90
2017-11-07T21:44:05.790Z,7.90
2017-11-07T21:46:34.816Z,7.90
2017-11-07T21:49:04.603Z,7.80
2017-11-07T21:51:33.374Z,7.80
2017-11-07T21:54:03.220Z,7.70
2017-11-07T21:56:32.037Z,7.80
2017-11-07T21:59:00.795Z,7.80
2017-11-07T22:01:30.160Z,7.80
2017-11-07T22:03:58.952Z,7.80
2017-11-07T22:06:27.834Z,7.90
2017-11-07T22:08:56.594Z,7.90
2017-11-07T22:11:26.117Z,7.80
2017-11-07T22:13:54.899Z,7.80
2017-11-07T22:16:23.747Z,7.90
2017-11-07T22:18:53.576Z,7.90
2017-11-07T22:21:23.090Z,7.80
2017-11-07T22:23:51.854Z,7.80
2017-11-07T22:26:20.626Z,7.90
2017-11-07T22:28:49.398Z,7.90
2017-11-07T22:31:17.945Z,7.80
2017-11-07T22:33:47.440Z,7.80
2017-11-07T22:36:16.267Z,7.80
2017-11-07T22:38:45.043Z,7.80
2017-11-07T22:41:13.777Z,7.80
2017-11-07T22:43:42.574Z,7.80
2017-11-07T22:46:11.349Z,7.90
2017-11-07T22:48:40.151Z,7.80
2017-11-07T22:51:08.917Z,7.90
2017-11-07T22:53:37.705Z,7.80
2017-11-07T22:56:06.487Z,7.80
2017-11-07T22:58:35.266Z,7.80
2017-11-07T23:01:04.043Z,7.80
2017-11-07T23:03:32.805Z,7.80
2017-11-07T23:06:01.537Z,7.90
2017-11-07T23:08:30.687Z,7.80
2017-11-07T23:10:59.895Z,7.80
2017-11-07T23:13:28.626Z,7.90
2017-11-07T23:15:57.394Z,7.90
2017-11-07T23:18:26.210Z,7.90
2017-11-07T23:20:54.985Z,7.90
2017-11-07T23:23:23.890Z,7.80
2017-11-07T23:25:52.723Z,7.90
2017-11-07T23:28:21.442Z,7.90
2017-11-07T23:30:50.915Z,7.90
2017-11-07T23:33:19.697Z,7.90
2017-11-07T23:35:48.443Z,7.80
2017-11-07T23:38:17.947Z,7.80
2017-11-07T23:40:46.754Z,7.70
2017-11-07T23:43:15.791Z,7.80
2017-11-07T23:45:45.374Z,7.80
2017-11-07T23:48:14.149Z,7.80
2017-11-07T23:50:45.793Z,7.80
2017-11-07T23:53:15.337Z,7.90
2017-11-07T23:55:44.052Z,7.90
2017-11-07T23:58:12.826Z,7.90
